الصفحة الرئيسية
METAR-TAF:

METAR-TAF

مطار :

فودجا, إيطاليا

دائرة عرض: 41-25-58N, خط طول: 015-32-06E, ارتفاع: 81 متر

مراقبة الطقس الحالي

تاريخ ووقت الإصدار 39 دقيقة قبل الساعة 14:50UTC
ريح 9 عقدة من الشرق/الشمال الشرقي, الاتجاه يتراوح بين الشمال/الشمال الشرقي و الشرق/الجنوب الشرقي
درجة الحرارة 17°درجة مئوية
الرطوبة 39%
ضغط 1024 hPa
الرؤية 10 كم أو أكثر
الغيوم لا تقل 1500 م ولا وجود لمزنة ركامية السحاب الأسود

METAR: LIBF 061450Z 07009KT 030V110 CAVOK 17/03 Q1024

زمن: 17:29 (15:29 UTC)


TAF: مفقودة

أرصاد الطقس والتوقعات من أكثر من 4000 مطار (تقارير الطقس للمطار METAR والتنبؤ بالطقس بالمطارTAF).

المحطات المتاحة هي النقط الصفراء والحمراء على الخريطة.

حرك المؤشر فوق النقطة لمعرفة اسم المحطة.

ثم انقر لمعرفة أرصاد وتوقعات الطقس.

لتغيير الخارطة: اضغط على الأزرار الخضراء مع رمز الصليب الأسود للتكبير. على الزر الأخضر مع شرطة للتصغير، أو على الأسهم الخضراء للخرائط المجاورة.


METAR-TAF: